sensor_id;sensor_type;location;lat;lon;timestamp;P1;durP1;ratioP1;P2;durP2;ratioP2
25207;SDS011;13153;52.316;21.166;2023-05-07T00:04:27;13.60;;;4.88;;
25207;SDS011;13153;52.316;21.166;2023-05-07T00:06:53;9.43;;;5.47;;
25207;SDS011;13153;52.316;21.166;2023-05-07T00:09:20;7.22;;;5.20;;
25207;SDS011;13153;52.316;21.166;2023-05-07T00:11:46;10.88;;;5.10;;
25207;SDS011;13153;52.316;21.166;2023-05-07T00:14:12;10.43;;;5.10;;
25207;SDS011;13153;52.316;21.166;2023-05-07T00:16:37;7.13;;;4.80;;
25207;SDS011;13153;52.316;21.166;2023-05-07T00:19:03;7.32;;;5.13;;
25207;SDS011;13153;52.316;21.166;2023-05-07T00:21:29;7.25;;;4.72;;
25207;SDS011;13153;52.316;21.166;2023-05-07T00:23:55;8.85;;;5.57;;
25207;SDS011;13153;52.316;21.166;2023-05-07T00:26:21;12.82;;;5.22;;
25207;SDS011;13153;52.316;21.166;2023-05-07T00:28:47;13.70;;;5.68;;
25207;SDS011;13153;52.316;21.166;2023-05-07T00:31:13;7.53;;;4.63;;
25207;SDS011;13153;52.316;21.166;2023-05-07T00:33:38;9.13;;;5.00;;
25207;SDS011;13153;52.316;21.166;2023-05-07T00:36:04;7.82;;;4.85;;
25207;SDS011;13153;52.316;21.166;2023-05-07T00:38:30;10.82;;;5.07;;
25207;SDS011;13153;52.316;21.166;2023-05-07T00:40:56;9.45;;;5.18;;
25207;SDS011;13153;52.316;21.166;2023-05-07T00:43:22;10.48;;;5.20;;
25207;SDS011;13153;52.316;21.166;2023-05-07T00:45:47;7.45;;;4.63;;
25207;SDS011;13153;52.316;21.166;2023-05-07T00:48:13;10.18;;;5.28;;
25207;SDS011;13153;52.316;21.166;2023-05-07T00:50:40;6.55;;;4.88;;
25207;SDS011;13153;52.316;21.166;2023-05-07T00:53:07;6.72;;;4.75;;
25207;SDS011;13153;52.316;21.166;2023-05-07T00:55:32;8.15;;;5.35;;
25207;SDS011;13153;52.316;21.166;2023-05-07T00:58:00;7.63;;;5.20;;
25207;SDS011;13153;52.316;21.166;2023-05-07T01:00:25;8.23;;;4.90;;
25207;SDS011;13153;52.316;21.166;2023-05-07T01:02:51;10.77;;;5.07;;
25207;SDS011;13153;52.316;21.166;2023-05-07T01:05:18;7.80;;;5.10;;
25207;SDS011;13153;52.316;21.166;2023-05-07T01:07:46;8.98;;;5.30;;
25207;SDS011;13153;52.316;21.166;2023-05-07T01:10:14;7.32;;;5.30;;
25207;SDS011;13153;52.316;21.166;2023-05-07T01:12:41;6.60;;;4.97;;
25207;SDS011;13153;52.316;21.166;2023-05-07T01:15:08;8.80;;;5.60;;
25207;SDS011;13153;52.316;21.166;2023-05-07T01:17:35;7.22;;;4.65;;
25207;SDS011;13153;52.316;21.166;2023-05-07T01:20:07;9.32;;;5.07;;
25207;SDS011;13153;52.316;21.166;2023-05-07T01:22:35;9.02;;;4.97;;
25207;SDS011;13153;52.316;21.166;2023-05-07T01:25:03;6.50;;;4.78;;
25207;SDS011;13153;52.316;21.166;2023-05-07T01:27:32;6.22;;;4.82;;
25207;SDS011;13153;52.316;21.166;2023-05-07T01:30:01;8.20;;;4.68;;
25207;SDS011;13153;52.316;21.166;2023-05-07T01:32:38;10.27;;;5.30;;
25207;SDS011;13153;52.316;21.166;2023-05-07T01:35:12;7.82;;;4.65;;
25207;SDS011;13153;52.316;21.166;2023-05-07T01:37:45;8.40;;;4.90;;
25207;SDS011;13153;52.316;21.166;2023-05-07T01:40:13;10.35;;;4.60;;
25207;SDS011;13153;52.316;21.166;2023-05-07T01:42:39;5.90;;;4.63;;
25207;SDS011;13153;52.316;21.166;2023-05-07T01:45:08;11.80;;;5.00;;
25207;SDS011;13153;52.316;21.166;2023-05-07T01:47:35;10.50;;;4.68;;
25207;SDS011;13153;52.316;21.166;2023-05-07T01:50:03;7.75;;;4.80;;
25207;SDS011;13153;52.316;21.166;2023-05-07T01:52:33;9.77;;;4.63;;
25207;SDS011;13153;52.316;21.166;2023-05-07T01:54:59;6.40;;;4.50;;
25207;SDS011;13153;52.316;21.166;2023-05-07T01:57:25;6.72;;;4.45;;
25207;SDS011;13153;52.316;21.166;2023-05-07T01:59:51;6.32;;;4.18;;
25207;SDS011;13153;52.316;21.166;2023-05-07T02:02:17;7.65;;;4.63;;
25207;SDS011;13153;52.316;21.166;2023-05-07T02:04:42;9.75;;;4.63;;
25207;SDS011;13153;52.316;21.166;2023-05-07T02:07:08;8.52;;;4.80;;
25207;SDS011;13153;52.316;21.166;2023-05-07T02:09:34;6.63;;;4.78;;
25207;SDS011;13153;52.316;21.166;2023-05-07T02:11:59;6.78;;;4.55;;
25207;SDS011;13153;52.316;21.166;2023-05-07T02:14:26;6.10;;;4.68;;
25207;SDS011;13153;52.316;21.166;2023-05-07T02:16:52;7.07;;;4.90;;
25207;SDS011;13153;52.316;21.166;2023-05-07T02:19:17;7.32;;;4.60;;
25207;SDS011;13153;52.316;21.166;2023-05-07T02:21:46;7.47;;;4.90;;
25207;SDS011;13153;52.316;21.166;2023-05-07T02:24:12;8.25;;;4.93;;
25207;SDS011;13153;52.316;21.166;2023-05-07T02:26:39;6.47;;;4.60;;
25207;SDS011;13153;52.316;21.166;2023-05-07T02:29:06;6.63;;;4.35;;
25207;SDS011;13153;52.316;21.166;2023-05-07T02:31:32;7.20;;;4.30;;
25207;SDS011;13153;52.316;21.166;2023-05-07T02:33:59;9.02;;;4.80;;
25207;SDS011;13153;52.316;21.166;2023-05-07T02:36:25;8.98;;;4.80;;
25207;SDS011;13153;52.316;21.166;2023-05-07T02:38:51;7.32;;;4.53;;
25207;SDS011;13153;52.316;21.166;2023-05-07T02:41:17;7.40;;;4.35;;
25207;SDS011;13153;52.316;21.166;2023-05-07T02:43:43;9.30;;;4.45;;
25207;SDS011;13153;52.316;21.166;2023-05-07T02:46:09;8.27;;;4.60;;
25207;SDS011;13153;52.316;21.166;2023-05-07T02:48:35;5.50;;;4.00;;
25207;SDS011;13153;52.316;21.166;2023-05-07T02:51:01;6.57;;;4.55;;
25207;SDS011;13153;52.316;21.166;2023-05-07T02:53:28;6.60;;;4.40;;
25207;SDS011;13153;52.316;21.166;2023-05-07T02:55:57;7.93;;;4.55;;
25207;SDS011;13153;52.316;21.166;2023-05-07T02:58:25;7.43;;;4.47;;
25207;SDS011;13153;52.316;21.166;2023-05-07T03:00:51;7.40;;;4.43;;
25207;SDS011;13153;52.316;21.166;2023-05-07T03:03:19;10.02;;;4.45;;
25207;SDS011;13153;52.316;21.166;2023-05-07T03:05:45;5.68;;;4.13;;
25207;SDS011;13153;52.316;21.166;2023-05-07T03:08:11;6.43;;;4.68;;
25207;SDS011;13153;52.316;21.166;2023-05-07T03:10:37;7.95;;;4.90;;
25207;SDS011;13153;52.316;21.166;2023-05-07T03:13:04;7.38;;;4.50;;
25207;SDS011;13153;52.316;21.166;2023-05-07T03:15:30;8.93;;;4.32;;
25207;SDS011;13153;52.316;21.166;2023-05-07T03:17:56;8.30;;;4.68;;
25207;SDS011;13153;52.316;21.166;2023-05-07T03:20:22;8.48;;;4.97;;
25207;SDS011;13153;52.316;21.166;2023-05-07T03:22:47;5.47;;;4.15;;
25207;SDS011;13153;52.316;21.166;2023-05-07T03:25:13;7.18;;;4.55;;
25207;SDS011;13153;52.316;21.166;2023-05-07T03:27:39;7.68;;;4.35;;
25207;SDS011;13153;52.316;21.166;2023-05-07T03:30:07;5.63;;;4.13;;
25207;SDS011;13153;52.316;21.166;2023-05-07T03:32:34;7.40;;;4.18;;
25207;SDS011;13153;52.316;21.166;2023-05-07T03:35:00;8.05;;;4.35;;
25207;SDS011;13153;52.316;21.166;2023-05-07T03:37:27;5.88;;;4.18;;
25207;SDS011;13153;52.316;21.166;2023-05-07T03:39:53;5.85;;;4.22;;
25207;SDS011;13153;52.316;21.166;2023-05-07T03:42:19;7.57;;;4.72;;
25207;SDS011;13153;52.316;21.166;2023-05-07T03:44:45;5.43;;;3.97;;
25207;SDS011;13153;52.316;21.166;2023-05-07T03:47:10;5.63;;;3.78;;
25207;SDS011;13153;52.316;21.166;2023-05-07T03:49:38;4.50;;;3.80;;
25207;SDS011;13153;52.316;21.166;2023-05-07T03:52:04;6.22;;;4.30;;
25207;SDS011;13153;52.316;21.166;2023-05-07T03:54:31;5.88;;;4.32;;
25207;SDS011;13153;52.316;21.166;2023-05-07T03:56:57;6.35;;;4.30;;
25207;SDS011;13153;52.316;21.166;2023-05-07T03:59:22;5.43;;;4.03;;
25207;SDS011;13153;52.316;21.166;2023-05-07T04:01:48;5.75;;;4.43;;
25207;SDS011;13153;52.316;21.166;2023-05-07T04:04:14;5.20;;;4.10;;
25207;SDS011;13153;52.316;21.166;2023-05-07T04:06:40;6.10;;;4.35;;
25207;SDS011;13153;52.316;21.166;2023-05-07T04:09:06;7.28;;;3.95;;
25207;SDS011;13153;52.316;21.166;2023-05-07T04:11:32;5.47;;;4.18;;
25207;SDS011;13153;52.316;21.166;2023-05-07T04:13:58;6.65;;;4.55;;
25207;SDS011;13153;52.316;21.166;2023-05-07T04:16:24;6.68;;;4.70;;
25207;SDS011;13153;52.316;21.166;2023-05-07T04:18:50;8.40;;;4.75;;
25207;SDS011;13153;52.316;21.166;2023-05-07T04:21:16;7.95;;;4.97;;
25207;SDS011;13153;52.316;21.166;2023-05-07T04:23:43;5.68;;;4.40;;
25207;SDS011;13153;52.316;21.166;2023-05-07T04:26:09;7.90;;;5.07;;
25207;SDS011;13153;52.316;21.166;2023-05-07T04:28:35;6.57;;;4.63;;
25207;SDS011;13153;52.316;21.166;2023-05-07T04:31:01;6.72;;;4.70;;
25207;SDS011;13153;52.316;21.166;2023-05-07T04:33:27;6.60;;;4.80;;
25207;SDS011;13153;52.316;21.166;2023-05-07T04:35:53;9.65;;;5.00;;
25207;SDS011;13153;52.316;21.166;2023-05-07T04:38:18;6.55;;;4.60;;
25207;SDS011;13153;52.316;21.166;2023-05-07T04:40:44;6.10;;;4.82;;
25207;SDS011;13153;52.316;21.166;2023-05-07T04:43:11;7.35;;;4.93;;
25207;SDS011;13153;52.316;21.166;2023-05-07T04:45:38;9.38;;;5.55;;
25207;SDS011;13153;52.316;21.166;2023-05-07T04:48:06;6.18;;;4.70;;
25207;SDS011;13153;52.316;21.166;2023-05-07T04:50:33;10.15;;;5.00;;
25207;SDS011;13153;52.316;21.166;2023-05-07T04:52:59;7.20;;;4.57;;
25207;SDS011;13153;52.316;21.166;2023-05-07T04:55:25;5.22;;;4.00;;
25207;SDS011;13153;52.316;21.166;2023-05-07T04:57:51;5.60;;;4.63;;
25207;SDS011;13153;52.316;21.166;2023-05-07T05:00:18;9.48;;;5.03;;
25207;SDS011;13153;52.316;21.166;2023-05-07T05:02:44;7.45;;;4.72;;
25207;SDS011;13153;52.316;21.166;2023-05-07T05:05:10;5.85;;;4.45;;
25207;SDS011;13153;52.316;21.166;2023-05-07T05:07:36;5.90;;;4.20;;
25207;SDS011;13153;52.316;21.166;2023-05-07T05:10:02;8.93;;;4.32;;
25207;SDS011;13153;52.316;21.166;2023-05-07T05:12:30;7.97;;;4.60;;
25207;SDS011;13153;52.316;21.166;2023-05-07T05:14:56;8.73;;;4.60;;
25207;SDS011;13153;52.316;21.166;2023-05-07T05:17:22;6.47;;;4.40;;
25207;SDS011;13153;52.316;21.166;2023-05-07T05:19:48;8.90;;;4.55;;
25207;SDS011;13153;52.316;21.166;2023-05-07T05:22:14;6.13;;;4.93;;
25207;SDS011;13153;52.316;21.166;2023-05-07T05:24:40;5.95;;;4.25;;
25207;SDS011;13153;52.316;21.166;2023-05-07T05:27:05;4.93;;;3.95;;
25207;SDS011;13153;52.316;21.166;2023-05-07T05:29:31;7.32;;;4.47;;
25207;SDS011;13153;52.316;21.166;2023-05-07T05:31:57;6.65;;;4.20;;
25207;SDS011;13153;52.316;21.166;2023-05-07T05:34:23;4.80;;;3.30;;
25207;SDS011;13153;52.316;21.166;2023-05-07T05:36:48;5.50;;;3.58;;
25207;SDS011;13153;52.316;21.166;2023-05-07T05:39:14;6.82;;;3.65;;
25207;SDS011;13153;52.316;21.166;2023-05-07T05:41:40;9.70;;;3.70;;
25207;SDS011;13153;52.316;21.166;2023-05-07T05:44:06;5.78;;;3.40;;
25207;SDS011;13153;52.316;21.166;2023-05-07T05:46:31;6.72;;;3.55;;
25207;SDS011;13153;52.316;21.166;2023-05-07T05:48:57;5.72;;;3.42;;
25207;SDS011;13153;52.316;21.166;2023-05-07T05:51:23;5.35;;;3.55;;
25207;SDS011;13153;52.316;21.166;2023-05-07T05:53:49;5.53;;;3.58;;
25207;SDS011;13153;52.316;21.166;2023-05-07T05:56:15;6.53;;;3.08;;
25207;SDS011;13153;52.316;21.166;2023-05-07T05:58:41;3.75;;;3.08;;
25207;SDS011;13153;52.316;21.166;2023-05-07T06:01:07;4.13;;;3.03;;
25207;SDS011;13153;52.316;21.166;2023-05-07T06:03:33;5.60;;;3.40;;
25207;SDS011;13153;52.316;21.166;2023-05-07T06:05:59;4.32;;;3.28;;
25207;SDS011;13153;52.316;21.166;2023-05-07T06:08:25;4.03;;;3.22;;
25207;SDS011;13153;52.316;21.166;2023-05-07T06:10:55;4.85;;;3.58;;
25207;SDS011;13153;52.316;21.166;2023-05-07T06:13:21;4.07;;;3.38;;
25207;SDS011;13153;52.316;21.166;2023-05-07T06:15:48;5.80;;;3.67;;
25207;SDS011;13153;52.316;21.166;2023-05-07T06:18:14;5.88;;;3.53;;
25207;SDS011;13153;52.316;21.166;2023-05-07T06:20:40;4.85;;;3.60;;
25207;SDS011;13153;52.316;21.166;2023-05-07T06:23:06;4.32;;;3.35;;
25207;SDS011;13153;52.316;21.166;2023-05-07T06:25:31;5.15;;;4.05;;
25207;SDS011;13153;52.316;21.166;2023-05-07T06:27:57;8.25;;;3.40;;
25207;SDS011;13153;52.316;21.166;2023-05-07T06:30:23;4.47;;;3.30;;
25207;SDS011;13153;52.316;21.166;2023-05-07T06:32:49;5.38;;;3.90;;
25207;SDS011;13153;52.316;21.166;2023-05-07T06:35:14;6.25;;;3.60;;
25207;SDS011;13153;52.316;21.166;2023-05-07T06:37:41;4.78;;;3.28;;
25207;SDS011;13153;52.316;21.166;2023-05-07T06:40:08;6.03;;;3.88;;
25207;SDS011;13153;52.316;21.166;2023-05-07T06:42:35;6.57;;;3.95;;
25207;SDS011;13153;52.316;21.166;2023-05-07T06:45:02;5.22;;;3.35;;
25207;SDS011;13153;52.316;21.166;2023-05-07T06:47:29;6.57;;;3.92;;
25207;SDS011;13153;52.316;21.166;2023-05-07T06:49:55;4.63;;;3.78;;
25207;SDS011;13153;52.316;21.166;2023-05-07T06:52:20;7.85;;;4.13;;
25207;SDS011;13153;52.316;21.166;2023-05-07T06:54:46;4.80;;;3.40;;
25207;SDS011;13153;52.316;21.166;2023-05-07T06:57:12;7.15;;;3.53;;
25207;SDS011;13153;52.316;21.166;2023-05-07T06:59:38;5.55;;;3.42;;
25207;SDS011;13153;52.316;21.166;2023-05-07T07:02:04;6.70;;;3.78;;
25207;SDS011;13153;52.316;21.166;2023-05-07T07:04:30;6.80;;;3.30;;
25207;SDS011;13153;52.316;21.166;2023-05-07T07:06:56;7.82;;;3.45;;
25207;SDS011;13153;52.316;21.166;2023-05-07T07:09:21;6.65;;;3.72;;
25207;SDS011;13153;52.316;21.166;2023-05-07T07:11:47;5.15;;;3.25;;
25207;SDS011;13153;52.316;21.166;2023-05-07T07:14:13;5.78;;;3.75;;
25207;SDS011;13153;52.316;21.166;2023-05-07T07:16:39;4.00;;;3.33;;
25207;SDS011;13153;52.316;21.166;2023-05-07T07:19:05;6.50;;;3.30;;
25207;SDS011;13153;52.316;21.166;2023-05-07T07:21:31;5.93;;;3.78;;
25207;SDS011;13153;52.316;21.166;2023-05-07T07:23:57;6.15;;;3.50;;
25207;SDS011;13153;52.316;21.166;2023-05-07T07:26:23;7.70;;;3.42;;
25207;SDS011;13153;52.316;21.166;2023-05-07T07:28:48;4.22;;;3.13;;
25207;SDS011;13153;52.316;21.166;2023-05-07T07:31:14;19.58;;;3.50;;
25207;SDS011;13153;52.316;21.166;2023-05-07T07:33:40;9.98;;;3.10;;
25207;SDS011;13153;52.316;21.166;2023-05-07T07:36:06;5.85;;;3.30;;
25207;SDS011;13153;52.316;21.166;2023-05-07T07:38:33;5.97;;;3.10;;
25207;SDS011;13153;52.316;21.166;2023-05-07T07:41:00;6.55;;;3.25;;
25207;SDS011;13153;52.316;21.166;2023-05-07T07:43:26;7.15;;;3.28;;
25207;SDS011;13153;52.316;21.166;2023-05-07T07:45:52;5.28;;;3.50;;
25207;SDS011;13153;52.316;21.166;2023-05-07T07:48:18;8.35;;;3.00;;
25207;SDS011;13153;52.316;21.166;2023-05-07T07:50:44;4.38;;;3.17;;
25207;SDS011;13153;52.316;21.166;2023-05-07T07:53:10;4.65;;;2.92;;
25207;SDS011;13153;52.316;21.166;2023-05-07T07:55:39;5.07;;;2.92;;
25207;SDS011;13153;52.316;21.166;2023-05-07T07:58:05;5.93;;;3.60;;
25207;SDS011;13153;52.316;21.166;2023-05-07T08:00:31;5.95;;;3.13;;
25207;SDS011;13153;52.316;21.166;2023-05-07T08:02:56;7.95;;;3.03;;
25207;SDS011;13153;52.316;21.166;2023-05-07T08:05:22;4.13;;;2.97;;
25207;SDS011;13153;52.316;21.166;2023-05-07T08:07:48;5.43;;;3.55;;
25207;SDS011;13153;52.316;21.166;2023-05-07T08:10:18;4.25;;;3.15;;
25207;SDS011;13153;52.316;21.166;2023-05-07T08:12:46;3.78;;;2.92;;
25207;SDS011;13153;52.316;21.166;2023-05-07T08:15:16;6.47;;;3.50;;
25207;SDS011;13153;52.316;21.166;2023-05-07T08:17:42;6.72;;;2.85;;
25207;SDS011;13153;52.316;21.166;2023-05-07T08:20:09;11.20;;;2.80;;
25207;SDS011;13153;52.316;21.166;2023-05-07T08:22:35;7.50;;;2.92;;
25207;SDS011;13153;52.316;21.166;2023-05-07T08:25:02;5.30;;;3.08;;
25207;SDS011;13153;52.316;21.166;2023-05-07T08:27:28;4.47;;;2.70;;
25207;SDS011;13153;52.316;21.166;2023-05-07T08:29:54;5.22;;;3.05;;
25207;SDS011;13153;52.316;21.166;2023-05-07T08:32:20;6.00;;;2.90;;
25207;SDS011;13153;52.316;21.166;2023-05-07T08:34:46;4.18;;;2.72;;
25207;SDS011;13153;52.316;21.166;2023-05-07T08:37:13;7.05;;;2.95;;
25207;SDS011;13153;52.316;21.166;2023-05-07T08:39:38;4.47;;;2.90;;
25207;SDS011;13153;52.316;21.166;2023-05-07T08:42:04;10.45;;;3.10;;
25207;SDS011;13153;52.316;21.166;2023-05-07T08:44:33;7.35;;;2.58;;
25207;SDS011;13153;52.316;21.166;2023-05-07T08:47:02;5.45;;;3.78;;
25207;SDS011;13153;52.316;21.166;2023-05-07T08:49:32;8.02;;;3.17;;
25207;SDS011;13153;52.316;21.166;2023-05-07T08:51:59;8.07;;;3.10;;
25207;SDS011;13153;52.316;21.166;2023-05-07T08:54:26;3.80;;;2.40;;
25207;SDS011;13153;52.316;21.166;2023-05-07T08:56:54;5.93;;;2.60;;
25207;SDS011;13153;52.316;21.166;2023-05-07T08:59:20;3.78;;;2.58;;
25207;SDS011;13153;52.316;21.166;2023-05-07T09:01:46;3.58;;;2.50;;
25207;SDS011;13153;52.316;21.166;2023-05-07T09:04:11;4.97;;;2.55;;
25207;SDS011;13153;52.316;21.166;2023-05-07T09:06:37;10.32;;;2.72;;
25207;SDS011;13153;52.316;21.166;2023-05-07T09:09:06;5.53;;;2.50;;
25207;SDS011;13153;52.316;21.166;2023-05-07T09:11:33;5.93;;;2.70;;
25207;SDS011;13153;52.316;21.166;2023-05-07T09:13:59;5.03;;;2.70;;
25207;SDS011;13153;52.316;21.166;2023-05-07T09:16:26;6.82;;;2.80;;
25207;SDS011;13153;52.316;21.166;2023-05-07T09:18:57;3.63;;;2.53;;
25207;SDS011;13153;52.316;21.166;2023-05-07T09:21:25;4.72;;;2.70;;
25207;SDS011;13153;52.316;21.166;2023-05-07T09:23:52;5.75;;;2.45;;
25207;SDS011;13153;52.316;21.166;2023-05-07T09:26:23;5.88;;;2.75;;
25207;SDS011;13153;52.316;21.166;2023-05-07T09:28:50;3.70;;;2.50;;
25207;SDS011;13153;52.316;21.166;2023-05-07T09:31:17;7.00;;;2.90;;
25207;SDS011;13153;52.316;21.166;2023-05-07T09:33:42;4.15;;;2.35;;
25207;SDS011;13153;52.316;21.166;2023-05-07T09:36:09;2.95;;;2.10;;
25207;SDS011;13153;52.316;21.166;2023-05-07T09:38:35;3.83;;;2.20;;
25207;SDS011;13153;52.316;21.166;2023-05-07T09:41:10;8.00;;;3.10;;
25207;SDS011;13153;52.316;21.166;2023-05-07T09:43:38;4.95;;;2.70;;
25207;SDS011;13153;52.316;21.166;2023-05-07T09:46:14;5.50;;;2.30;;
25207;SDS011;13153;52.316;21.166;2023-05-07T09:48:42;4.72;;;2.08;;
25207;SDS011;13153;52.316;21.166;2023-05-07T09:51:34;4.10;;;2.13;;
25207;SDS011;13153;52.316;21.166;2023-05-07T09:54:17;5.88;;;1.92;;
25207;SDS011;13153;52.316;21.166;2023-05-07T09:56:47;6.28;;;2.17;;
25207;SDS011;13153;52.316;21.166;2023-05-07T09:59:14;3.78;;;1.90;;
25207;SDS011;13153;52.316;21.166;2023-05-07T10:01:42;4.20;;;2.13;;
25207;SDS011;13153;52.316;21.166;2023-05-07T10:04:09;4.72;;;2.17;;
25207;SDS011;13153;52.316;21.166;2023-05-07T10:06:37;4.70;;;2.15;;
25207;SDS011;13153;52.316;21.166;2023-05-07T10:09:04;4.88;;;2.10;;
25207;SDS011;13153;52.316;21.166;2023-05-07T10:11:34;4.45;;;2.67;;
25207;SDS011;13153;52.316;21.166;2023-05-07T10:14:01;5.53;;;2.58;;
25207;SDS011;13153;52.316;21.166;2023-05-07T10:16:32;3.58;;;2.40;;
25207;SDS011;13153;52.316;21.166;2023-05-07T10:19:04;5.28;;;2.35;;
25207;SDS011;13153;52.316;21.166;2023-05-07T10:21:37;6.30;;;2.30;;
25207;SDS011;13153;52.316;21.166;2023-05-07T10:24:07;3.40;;;2.20;;
25207;SDS011;13153;52.316;21.166;2023-05-07T10:29:18;3.85;;;2.50;;
25207;SDS011;13153;52.316;21.166;2023-05-07T10:34:34;2.83;;;2.10;;
25207;SDS011;13153;52.316;21.166;2023-05-07T10:37:05;4.82;;;2.30;;
25207;SDS011;13153;52.316;21.166;2023-05-07T10:39:32;5.00;;;2.42;;
25207;SDS011;13153;52.316;21.166;2023-05-07T10:42:09;4.25;;;2.38;;
25207;SDS011;13153;52.316;21.166;2023-05-07T10:44:36;6.13;;;2.60;;
25207;SDS011;13153;52.316;21.166;2023-05-07T10:47:06;7.43;;;2.42;;
25207;SDS011;13153;52.316;21.166;2023-05-07T10:50:20;2.88;;;1.92;;
25207;SDS011;13153;52.316;21.166;2023-05-07T10:52:21;5.03;;;2.38;;
25207;SDS011;13153;52.316;21.166;2023-05-07T10:55:18;7.32;;;2.45;;
25207;SDS011;13153;52.316;21.166;2023-05-07T10:57:45;4.15;;;2.63;;
25207;SDS011;13153;52.316;21.166;2023-05-07T11:05:26;5.20;;;2.15;;
25207;SDS011;13153;52.316;21.166;2023-05-07T11:08:02;3.85;;;2.30;;
25207;SDS011;13153;52.316;21.166;2023-05-07T11:14:01;5.93;;;2.25;;
25207;SDS011;13153;52.316;21.166;2023-05-07T11:16:17;4.50;;;2.25;;
25207;SDS011;13153;52.316;21.166;2023-05-07T11:18:49;4.70;;;2.10;;
25207;SDS011;13153;52.316;21.166;2023-05-07T11:21:31;3.70;;;2.13;;
25207;SDS011;13153;52.316;21.166;2023-05-07T11:24:00;5.20;;;2.30;;
25207;SDS011;13153;52.316;21.166;2023-05-07T11:26:28;8.77;;;3.00;;
25207;SDS011;13153;52.316;21.166;2023-05-07T11:28:56;5.32;;;3.22;;
25207;SDS011;13153;52.316;21.166;2023-05-07T11:31:24;4.03;;;2.83;;
25207;SDS011;13153;52.316;21.166;2023-05-07T11:33:53;4.90;;;2.78;;
25207;SDS011;13153;52.316;21.166;2023-05-07T11:36:20;8.65;;;2.38;;
25207;SDS011;13153;52.316;21.166;2023-05-07T11:38:48;3.95;;;2.15;;
25207;SDS011;13153;52.316;21.166;2023-05-07T11:41:15;3.40;;;2.22;;
25207;SDS011;13153;52.316;21.166;2023-05-07T11:43:55;4.35;;;2.50;;
25207;SDS011;13153;52.316;21.166;2023-05-07T11:46:22;4.43;;;2.33;;
25207;SDS011;13153;52.316;21.166;2023-05-07T11:48:48;5.40;;;2.00;;
25207;SDS011;13153;52.316;21.166;2023-05-07T11:51:18;4.68;;;2.20;;
25207;SDS011;13153;52.316;21.166;2023-05-07T11:53:48;7.10;;;2.42;;
25207;SDS011;13153;52.316;21.166;2023-05-07T11:56:16;9.40;;;2.45;;
25207;SDS011;13153;52.316;21.166;2023-05-07T11:58:44;5.45;;;2.20;;
25207;SDS011;13153;52.316;21.166;2023-05-07T12:01:12;4.05;;;2.38;;
25207;SDS011;13153;52.316;21.166;2023-05-07T12:03:40;4.00;;;2.20;;
25207;SDS011;13153;52.316;21.166;2023-05-07T12:06:08;4.63;;;2.08;;
25207;SDS011;13153;52.316;21.166;2023-05-07T12:08:38;3.65;;;2.00;;
25207;SDS011;13153;52.316;21.166;2023-05-07T12:11:07;5.32;;;2.22;;
25207;SDS011;13153;52.316;21.166;2023-05-07T12:13:42;4.20;;;2.10;;
25207;SDS011;13153;52.316;21.166;2023-05-07T12:16:08;4.75;;;1.92;;
25207;SDS011;13153;52.316;21.166;2023-05-07T12:18:35;3.70;;;2.30;;
25207;SDS011;13153;52.316;21.166;2023-05-07T12:21:03;5.90;;;2.20;;
25207;SDS011;13153;52.316;21.166;2023-05-07T12:23:30;4.35;;;2.38;;
25207;SDS011;13153;52.316;21.166;2023-05-07T12:25:57;3.15;;;2.13;;
25207;SDS011;13153;52.316;21.166;2023-05-07T12:28:25;5.63;;;2.00;;
25207;SDS011;13153;52.316;21.166;2023-05-07T12:30:50;3.10;;;2.00;;
25207;SDS011;13153;52.316;21.166;2023-05-07T12:33:18;3.55;;;2.15;;
25207;SDS011;13153;52.316;21.166;2023-05-07T12:35:49;2.47;;;1.80;;
25207;SDS011;13153;52.316;21.166;2023-05-07T12:38:16;6.18;;;2.13;;
25207;SDS011;13153;52.316;21.166;2023-05-07T12:40:43;3.80;;;1.92;;
25207;SDS011;13153;52.316;21.166;2023-05-07T12:43:25;4.00;;;1.85;;
25207;SDS011;13153;52.316;21.166;2023-05-07T12:48:21;3.70;;;2.00;;
25207;SDS011;13153;52.316;21.166;2023-05-07T12:50:49;4.65;;;2.05;;
25207;SDS011;13153;52.316;21.166;2023-05-07T12:53:16;4.88;;;2.30;;
25207;SDS011;13153;52.316;21.166;2023-05-07T12:55:43;4.38;;;2.00;;
25207;SDS011;13153;52.316;21.166;2023-05-07T12:58:15;2.70;;;2.03;;
25207;SDS011;13153;52.316;21.166;2023-05-07T13:00:49;4.53;;;2.20;;
25207;SDS011;13153;52.316;21.166;2023-05-07T13:03:30;2.83;;;2.00;;
25207;SDS011;13153;52.316;21.166;2023-05-07T13:05:58;2.88;;;1.85;;
25207;SDS011;13153;52.316;21.166;2023-05-07T13:08:34;2.92;;;1.90;;
25207;SDS011;13153;52.316;21.166;2023-05-07T13:11:08;4.00;;;2.03;;
25207;SDS011;13153;52.316;21.166;2023-05-07T13:13:35;4.18;;;2.08;;
25207;SDS011;13153;52.316;21.166;2023-05-07T13:16:03;3.63;;;1.90;;
25207;SDS011;13153;52.316;21.166;2023-05-07T13:18:31;4.82;;;2.17;;
25207;SDS011;13153;52.316;21.166;2023-05-07T13:20:59;3.45;;;1.67;;
25207;SDS011;13153;52.316;21.166;2023-05-07T13:23:26;4.47;;;1.85;;
25207;SDS011;13153;52.316;21.166;2023-05-07T13:25:53;3.47;;;1.80;;
25207;SDS011;13153;52.316;21.166;2023-05-07T13:28:19;2.83;;;1.88;;
25207;SDS011;13153;52.316;21.166;2023-05-07T13:30:46;3.10;;;1.90;;
25207;SDS011;13153;52.316;21.166;2023-05-07T13:33:12;3.60;;;2.58;;
25207;SDS011;13153;52.316;21.166;2023-05-07T13:35:38;6.95;;;2.00;;
25207;SDS011;13153;52.316;21.166;2023-05-07T13:38:05;2.92;;;1.80;;
25207;SDS011;13153;52.316;21.166;2023-05-07T13:40:31;4.20;;;2.15;;
25207;SDS011;13153;52.316;21.166;2023-05-07T13:42:57;3.17;;;1.80;;
25207;SDS011;13153;52.316;21.166;2023-05-07T13:45:25;5.03;;;1.90;;
25207;SDS011;13153;52.316;21.166;2023-05-07T13:47:51;5.05;;;2.00;;
25207;SDS011;13153;52.316;21.166;2023-05-07T13:50:17;3.80;;;1.70;;
25207;SDS011;13153;52.316;21.166;2023-05-07T13:52:44;4.25;;;1.92;;
25207;SDS011;13153;52.316;21.166;2023-05-07T13:55:18;3.33;;;1.95;;
25207;SDS011;13153;52.316;21.166;2023-05-07T13:57:54;3.67;;;2.03;;
25207;SDS011;13153;52.316;21.166;2023-05-07T14:00:25;2.17;;;1.70;;
25207;SDS011;13153;52.316;21.166;2023-05-07T14:02:52;4.45;;;1.70;;
25207;SDS011;13153;52.316;21.166;2023-05-07T14:05:19;2.95;;;1.90;;
25207;SDS011;13153;52.316;21.166;2023-05-07T14:07:45;5.50;;;2.30;;
25207;SDS011;13153;52.316;21.166;2023-05-07T14:10:11;2.38;;;2.10;;
25207;SDS011;13153;52.316;21.166;2023-05-07T14:12:38;3.13;;;1.88;;
25207;SDS011;13153;52.316;21.166;2023-05-07T14:15:04;3.28;;;2.00;;
25207;SDS011;13153;52.316;21.166;2023-05-07T14:17:30;3.22;;;2.08;;
25207;SDS011;13153;52.316;21.166;2023-05-07T14:19:56;4.35;;;2.10;;
25207;SDS011;13153;52.316;21.166;2023-05-07T14:22:23;7.38;;;2.20;;
25207;SDS011;13153;52.316;21.166;2023-05-07T14:24:49;4.82;;;2.22;;
25207;SDS011;13153;52.316;21.166;2023-05-07T14:27:15;4.72;;;2.40;;
25207;SDS011;13153;52.316;21.166;2023-05-07T14:29:42;2.75;;;2.08;;
25207;SDS011;13153;52.316;21.166;2023-05-07T14:32:08;5.18;;;2.83;;
25207;SDS011;13153;52.316;21.166;2023-05-07T14:34:34;4.53;;;2.10;;
25207;SDS011;13153;52.316;21.166;2023-05-07T14:37:00;2.65;;;2.25;;
25207;SDS011;13153;52.316;21.166;2023-05-07T14:39:26;5.70;;;2.38;;
25207;SDS011;13153;52.316;21.166;2023-05-07T14:41:52;3.53;;;1.92;;
25207;SDS011;13153;52.316;21.166;2023-05-07T14:44:19;3.83;;;2.10;;
25207;SDS011;13153;52.316;21.166;2023-05-07T14:46:46;3.15;;;2.20;;
25207;SDS011;13153;52.316;21.166;2023-05-07T14:49:11;2.58;;;2.03;;
25207;SDS011;13153;52.316;21.166;2023-05-07T14:51:42;3.03;;;2.03;;
25207;SDS011;13153;52.316;21.166;2023-05-07T14:54:10;3.20;;;2.10;;